Little River, North Carolina
Current Conditions -  °F | °C
As of 3:53 AM on Friday 24 Oct 2014 (Local Time) from KHKY Reporting Station
Clear Clear  
Wind Chill: 44°   Ceiling: Unl
Heat Index: 44°   Visibility: 10mi
Dew Point: 40°   Wind: 3mph
Humidity: 85%   Direction: 30°NNE
Pressure: 30.04"   Gusts: NA
Location:  35.9243°N, 81.216°W
Report Text: KHKY 240753Z AUTO 03003KT 10SM CLR 07/04 A3004 RMK AO2 SLP157 T00670044
Loading
Personal Weather Stations






























Interactive Weather Map
Tropical Storm Tracking
New forecast layout! Learn more

10-Day Weather Forecast

Advertisements
Track Severe Weather on mobile